Main page
METAR-TAF:

METAR-TAF

Airports :

Cataratas del Iguazú International Airport

Iguaçu, Argentina

latitude: 25-44S, longitude: 054-28W, elevation: 270 m

Current weather observation

The report was made 54 minutes ago, at 17:00 UTC
Wind 4 kt from the East
Temperature 29°C
Humidity 37%
Pressure 1014 hPa
Visibility 10 km or more
Broken clouds at a height of 3000 ft

METAR: SARI 211700Z 09004KT 9999 BKN030 29/13 Q1014

Time: 14:54 (17:54 UTC)

Forecast

The report was made 54 minutes ago, at 17:00 UTC
Forecast valid from 21 at 18 UTC to 22 at 18 UTC
Wind 5 kt from the East
Visibility 10 km or more
Scattered clouds at a height of 3000 ft
Becoming
from 21 at 21 UTC to 21 at 23 UTC
Visibility 10 km or more
no clouds below 1500 m and no cumulonimbus

TAF: SARI 211700Z 2118/2218 09005KT 9999 SCT030 TX30/2119Z TN16/2209Z BECMG 2121/2123 CAVOK

Weather observations and forecasts of more than 4000 airports (METAR and TAF reports).

The available stations are represented by yellow and red dots on the map.

Hover mouse over dot to see the name of the station.

Then click to see weather observations and forecasts.

To change the map : click on the green buttons with a black cross to zoom in, on the green button with a dash to zoom out, or on the green arrows for adjacent maps.


METAR-TAF: